Time;durP1;ratioP1;P1;durP2;ratioP2;P2;SDS_P1;SDS_P2;PMS_P1;PMS_P2;Temp;Humidity;BMP_temperature;BMP_pressure;BME280_temperature;BME280_humidity;BME280_pressure;Samples;Min_cycle;Max_cycle;Signal;HPM_P1;HPM_P2
2022/06/17 00:00:06;;;;;;;;;10.50;10.00;;;;;22.62;48.02;101232.67;110204;1264;20031;-44
2022/06/17 00:02:54;;;;;;;;;9.33;9.00;;;;;22.60;47.73;101228.15;110135;1264;18922;-47
2022/06/17 00:05:21;;;;;;;;;10.00;9.67;;;;;22.58;47.56;101231.14;110246;1264;22201;-50
2022/06/17 00:07:48;;;;;;;;;9.67;9.00;;;;;22.57;47.49;101233.85;110299;1264;18603;-47
2022/06/17 00:10:15;;;;;;;;;10.00;10.00;;;;;22.56;47.50;101235.40;110294;1264;19037;-47
2022/06/17 00:12:43;;;;;;;;;11.00;10.67;;;;;22.56;47.39;101235.97;110325;1265;19498;-47
2022/06/17 00:15:13;;;;;;;;;9.00;9.00;;;;;22.53;47.14;101237.01;110279;1264;18707;-46
2022/06/17 00:17:41;;;;;;;;;11.00;10.33;;;;;22.51;47.13;101238.56;110309;1264;18646;-47
2022/06/17 00:20:08;;;;;;;;;11.00;10.00;;;;;22.48;47.11;101232.84;110257;1264;19587;-48
2022/06/17 00:22:35;;;;;;;;;9.00;7.00;;;;;22.50;46.95;101236.90;110256;1264;18707;-47
2022/06/17 00:25:03;;;;;;;;;11.00;9.00;;;;;22.53;46.85;101232.48;110246;1264;18825;-44
2022/06/17 00:27:30;;;;;;;;;8.33;8.33;;;;;22.53;46.39;101232.88;110123;1264;19809;-46
2022/06/17 00:29:57;;;;;;;;;9.67;7.67;;;;;22.49;46.43;101234.98;110145;1264;23553;-47
2022/06/17 00:32:25;;;;;;;;;11.67;10.00;;;;;22.45;46.29;101236.84;110237;1264;18810;-52
2022/06/17 00:34:52;;;;;;;;;11.33;10.33;;;;;22.43;46.18;101235.80;110295;1264;19552;-47
2022/06/17 00:37:19;;;;;;;;;11.00;10.33;;;;;22.41;46.11;101241.46;110310;1264;18816;-48
2022/06/17 00:39:46;;;;;;;;;9.00;9.00;;;;;22.41;46.04;101242.59;110323;1265;20023;-47
2022/06/17 00:42:14;;;;;;;;;10.33;9.67;;;;;22.39;45.76;101242.45;110298;1265;19906;-47
2022/06/17 00:44:41;;;;;;;;;9.67;9.67;;;;;22.39;45.78;101249.18;110303;1264;18630;-47
2022/06/17 00:47:08;;;;;;;;;9.33;7.00;;;;;22.40;45.44;101251.80;110308;1265;18804;-45
2022/06/17 00:49:36;;;;;;;;;7.00;7.00;;;;;22.37;45.54;101251.29;110261;1264;19471;-47
2022/06/17 00:52:03;;;;;;;;;8.67;8.67;;;;;22.36;45.44;101255.38;110203;1263;18464;-45
2022/06/17 00:54:30;;;;;;;;;11.00;9.67;;;;;22.36;45.40;101253.36;110290;1264;23125;-47
2022/06/17 00:56:58;;;;;;;;;9.00;8.00;;;;;22.34;45.28;101257.26;110264;1264;19563;-46
2022/06/17 00:59:25;;;;;;;;;8.00;8.00;;;;;22.31;45.33;101255.42;110292;1264;18812;-47
2022/06/17 01:01:53;;;;;;;;;9.67;9.33;;;;;22.28;45.34;101256.07;110286;1264;18756;-47
2022/06/17 01:04:20;;;;;;;;;8.00;7.50;;;;;22.30;45.29;101256.48;110306;1264;19404;-46
2022/06/17 01:06:47;;;;;;;;;7.67;7.67;;;;;22.30;45.31;101257.89;110370;1265;18447;-47
2022/06/17 01:12:11;;;;;;;;;7.00;7.00;;;;;22.27;45.03;101256.80;109606;1269;19983;-47
2022/06/17 01:14:38;;;;;;;;;8.67;7.67;;;;;22.28;45.25;101256.62;109478;1270;18458;-48
2022/06/17 01:17:05;;;;;;;;;6.67;6.67;;;;;22.29;44.99;101260.89;109552;1270;18763;-48
2022/06/17 01:19:33;;;;;;;;;7.67;7.67;;;;;22.27;45.08;101262.09;109376;1270;19742;-46
2022/06/17 01:22:00;;;;;;;;;8.33;7.67;;;;;22.22;44.91;101262.41;109409;1270;19776;-49
2022/06/17 01:24:36;;;;;;;;;6.67;6.00;;;;;22.22;44.93;101266.05;109534;1270;19354;-48
2022/06/17 01:27:04;;;;;;;;;6.00;6.00;;;;;22.23;45.12;101267.28;109445;1268;23892;-47
2022/06/17 01:29:33;;;;;;;;;6.33;6.33;;;;;22.21;44.96;101266.81;109513;1270;18601;-46
2022/06/17 01:32:00;;;;;;;;;9.00;7.67;;;;;22.22;44.89;101266.80;109582;1270;18911;-46
2022/06/17 01:34:27;;;;;;;;;6.33;6.33;;;;;22.22;44.69;101271.01;109574;1269;19491;-47
2022/06/17 01:36:55;;;;;;;;;7.00;7.00;;;;;22.19;44.78;101275.39;109622;1270;18478;-46
2022/06/17 01:39:22;;;;;;;;;7.00;7.00;;;;;22.17;44.75;101276.44;109477;1270;19212;-47
2022/06/17 01:41:51;;;;;;;;;9.00;7.67;;;;;22.17;44.87;101278.25;109549;1269;19544;-48
2022/06/17 01:44:18;;;;;;;;;7.33;7.33;;;;;22.17;44.66;101277.05;109580;1270;18503;-47
2022/06/17 01:46:45;;;;;;;;;9.50;7.00;;;;;22.15;44.77;101277.39;109867;1264;20336;-47
2022/06/17 01:49:12;;;;;;;;;6.50;6.50;;;;;22.10;44.76;101280.34;110259;1264;19596;-46
2022/06/17 01:51:40;;;;;;;;;6.00;6.00;;;;;22.03;44.88;101272.88;110305;1264;18502;-48
2022/06/17 01:54:07;;;;;;;;;6.50;6.50;;;;;21.99;44.99;101269.37;110292;1264;22093;-47
2022/06/17 01:56:35;;;;;;;;;7.00;7.00;;;;;22.01;44.85;101268.59;110287;1264;19539;-47
2022/06/17 01:59:03;;;;;;;;;6.33;6.33;;;;;22.00;44.91;101270.70;110274;1264;18597;-47
2022/06/17 02:01:30;;;;;;;;;8.67;8.00;;;;;22.00;44.93;101271.56;110281;1264;18879;-48
2022/06/17 02:03:57;;;;;;;;;9.00;9.00;;;;;22.00;44.97;101270.39;110334;1264;19702;-47
2022/06/17 02:06:24;;;;;;;;;6.67;6.67;;;;;22.01;44.76;101281.38;110249;1264;18536;-46
2022/06/17 02:08:53;;;;;;;;;9.00;9.00;;;;;22.02;44.94;101284.27;110277;1264;21087;-47
2022/06/17 02:11:20;;;;;;;;;6.00;6.00;;;;;22.01;44.87;101281.44;110291;1264;20121;-48
2022/06/17 02:13:47;;;;;;;;;8.67;6.00;;;;;22.00;44.92;101283.13;110298;1264;19830;-48
2022/06/17 02:16:14;;;;;;;;;6.50;6.50;;;;;21.92;45.00;101287.63;110238;1264;18848;-46
2022/06/17 02:18:42;;;;;;;;;9.33;7.33;;;;;21.89;45.10;101290.34;110296;1264;19515;-48
2022/06/17 02:21:09;;;;;;;;;6.33;6.33;;;;;21.88;45.06;101291.11;110272;1264;20275;-48
2022/06/17 02:23:37;;;;;;;;;9.00;7.33;;;;;21.85;45.12;101291.70;110266;1264;19004;-46
2022/06/17 02:26:04;;;;;;;;;6.00;6.00;;;;;21.83;45.24;101292.01;110299;1264;19757;-46
2022/06/17 02:28:31;;;;;;;;;9.00;8.67;;;;;21.83;45.48;101292.64;110285;1264;18416;-47
2022/06/17 02:30:58;;;;;;;;;7.00;7.00;;;;;21.82;45.40;101293.12;110314;1264;19008;-47
2022/06/17 02:33:26;;;;;;;;;7.00;7.00;;;;;21.79;45.62;101292.75;110302;1264;20937;-46
2022/06/17 02:35:53;;;;;;;;;6.00;6.00;;;;;21.78;45.76;101295.80;110256;1264;18452;-47
2022/06/17 02:38:20;;;;;;;;;7.00;7.00;;;;;21.80;45.72;101300.76;110237;1264;19304;-48
2022/06/17 02:41:00;;;;;;;;;7.33;7.00;;;;;21.80;45.57;101299.53;110274;1264;22207;-47
2022/06/17 02:43:27;;;;;;;;;7.00;6.67;;;;;21.78;46.00;101297.25;110279;1264;18574;-46
2022/06/17 02:45:54;;;;;;;;;8.67;7.67;;;;;21.77;45.81;101295.35;110300;1264;22809;-48
2022/06/17 02:48:21;;;;;;;;;10.00;9.33;;;;;21.76;46.06;101295.95;110284;1264;19781;-46
2022/06/17 02:50:48;;;;;;;;;10.00;9.33;;;;;21.75;46.19;101294.80;110284;1264;22823;-47
2022/06/17 02:53:16;;;;;;;;;10.00;9.33;;;;;21.74;46.00;101293.42;110261;1264;19219;-47
2022/06/17 02:55:43;;;;;;;;;12.00;10.00;;;;;21.76;46.13;101296.19;110273;1264;22229;-47
2022/06/17 02:58:10;;;;;;;;;10.00;9.00;;;;;21.75;45.97;101295.91;110267;1264;18709;-46
2022/06/17 03:00:38;;;;;;;;;10.00;9.33;;;;;21.74;45.89;101292.71;110324;1264;23111;-46
2022/06/17 03:03:05;;;;;;;;;10.33;7.33;;;;;21.75;45.97;101290.67;110257;1264;22957;-49
2022/06/17 03:05:32;;;;;;;;;10.00;10.00;;;;;21.73;45.79;101293.39;110282;1264;21036;-48
2022/06/17 03:07:59;;;;;;;;;12.00;11.33;;;;;21.71;45.88;101287.80;110281;1264;18869;-48
2022/06/17 03:10:27;;;;;;;;;9.00;9.00;;;;;21.71;45.76;101285.29;110300;1264;19549;-47
2022/06/17 03:12:54;;;;;;;;;9.33;9.33;;;;;21.68;45.76;101284.87;110316;1264;18780;-49
2022/06/17 03:15:21;;;;;;;;;9.00;9.00;;;;;21.69;45.83;101285.17;110304;1263;18929;-48
2022/06/17 03:17:48;;;;;;;;;9.00;8.00;;;;;21.68;45.89;101282.89;110287;1264;19679;-48
2022/06/17 03:20:16;;;;;;;;;9.33;8.67;;;;;21.66;45.73;101283.06;110307;1264;18471;-47
2022/06/17 03:22:43;;;;;;;;;10.67;10.67;;;;;21.66;45.93;101284.77;110298;1263;21813;-47
2022/06/17 03:25:10;;;;;;;;;8.67;8.33;;;;;21.66;46.03;101286.52;110300;1264;21014;-51
2022/06/17 03:27:37;;;;;;;;;9.00;9.00;;;;;21.65;45.97;101284.66;110304;1265;18841;-46
2022/06/17 03:30:05;;;;;;;;;9.00;9.00;;;;;21.66;46.13;101287.66;110266;1264;18830;-46
2022/06/17 03:32:32;;;;;;;;;8.00;8.00;;;;;21.65;46.08;101287.55;110296;1264;19386;-47
2022/06/17 03:34:59;;;;;;;;;9.50;9.00;;;;;21.64;45.89;101286.98;110213;1264;19707;-48
2022/06/17 03:37:26;;;;;;;;;8.00;8.00;;;;;21.63;46.19;101279.48;110260;1264;18889;-48
2022/06/17 03:39:54;;;;;;;;;8.67;8.33;;;;;21.62;46.11;101279.84;110334;1265;19670;-48
2022/06/17 03:42:21;;;;;;;;;8.33;8.33;;;;;21.62;46.21;101277.83;110273;1264;20014;-46
2022/06/17 03:44:48;;;;;;;;;8.00;8.00;;;;;21.65;46.09;101277.34;110313;1264;21546;-47
2022/06/17 03:47:16;;;;;;;;;8.00;8.00;;;;;21.68;46.06;101275.42;110262;1264;22450;-48
2022/06/17 03:49:43;;;;;;;;;6.00;6.00;;;;;21.69;46.08;101274.73;110245;1264;18515;-48
2022/06/17 03:52:10;;;;;;;;;9.00;9.00;;;;;21.69;46.00;101275.63;110296;1264;18854;-47
2022/06/17 03:54:37;;;;;;;;;9.00;8.67;;;;;21.71;45.85;101278.33;110280;1264;19821;-47
2022/06/17 03:57:05;;;;;;;;;6.67;6.67;;;;;21.73;45.77;101281.77;110247;1264;23514;-49
2022/06/17 03:59:32;;;;;;;;;8.33;8.00;;;;;21.72;45.96;101280.23;110159;1264;22902;-48
2022/06/17 04:01:59;;;;;;;;;8.00;8.00;;;;;21.72;45.94;101281.70;110118;1264;19643;-47
2022/06/17 04:04:26;;;;;;;;;6.67;6.67;;;;;21.72;45.91;101289.52;110246;1263;18574;-47
2022/06/17 04:06:54;;;;;;;;;9.00;8.00;;;;;21.75;45.96;101291.36;110345;1264;21639;-47
2022/06/17 04:09:21;;;;;;;;;6.00;6.00;;;;;21.77;45.91;101295.45;110281;1264;22964;-48
2022/06/17 04:11:48;;;;;;;;;6.00;6.00;;;;;21.79;46.15;101297.63;110282;1264;20016;-47
2022/06/17 04:14:15;;;;;;;;;9.00;8.00;;;;;21.79;46.02;101301.24;110285;1264;18718;-48
2022/06/17 04:16:43;;;;;;;;;6.00;6.00;;;;;21.78;46.06;101300.13;110285;1264;19475;-47
2022/06/17 04:19:10;;;;;;;;;6.00;6.00;;;;;21.81;45.95;101298.45;110286;1264;18772;-46
2022/06/17 04:21:37;;;;;;;;;7.33;7.33;;;;;21.85;45.96;101296.98;110182;1264;18739;-48
2022/06/17 04:24:06;;;;;;;;;10.67;9.33;;;;;21.85;46.16;101299.67;110205;1262;19478;-46
2022/06/17 04:26:33;;;;;;;;;9.00;7.33;;;;;21.93;45.78;101298.41;110244;1264;18489;-47
2022/06/17 04:29:00;;;;;;;;;8.00;8.00;;;;;21.96;45.83;101299.57;110222;1264;20390;-47
2022/06/17 04:31:28;;;;;;;;;8.00;8.00;;;;;21.94;45.89;101300.18;110213;1265;20089;-46
2022/06/17 04:33:55;;;;;;;;;9.00;9.00;;;;;21.90;45.99;101297.16;110204;1264;18590;-49
2022/06/17 04:36:22;;;;;;;;;9.00;9.00;;;;;21.90;45.92;101302.73;110234;1265;18871;-47
2022/06/17 04:38:50;;;;;;;;;6.00;6.00;;;;;22.01;45.81;101304.27;110240;1264;22173;-47
2022/06/17 04:41:17;;;;;;;;;11.33;9.67;;;;;22.08;45.80;101303.88;110256;1264;18630;-47
2022/06/17 04:43:47;;;;;;;;;8.00;7.33;;;;;22.10;45.59;101306.03;110226;1265;21909;-48
2022/06/17 04:46:14;;;;;;;;;8.67;7.33;;;;;22.10;45.55;101299.20;110259;1264;19707;-46
2022/06/17 04:48:41;;;;;;;;;7.33;7.00;;;;;22.09;45.65;101301.22;110238;1264;18479;-48
2022/06/17 04:51:09;;;;;;;;;8.00;8.00;;;;;22.17;45.57;101299.75;110193;1264;19023;-46
2022/06/17 04:53:38;;;;;;;;;6.00;6.00;;;;;22.19;45.57;101303.58;110227;1264;19750;-47
2022/06/17 04:56:05;;;;;;;;;9.00;9.00;;;;;22.20;45.48;101307.51;110279;1264;18609;-47
2022/06/17 04:58:33;;;;;;;;;9.50;9.50;;;;;22.24;45.66;101306.46;110242;1264;18758;-48
2022/06/17 05:01:00;;;;;;;;;9.67;9.67;;;;;22.30;45.85;101303.56;110318;1264;19584;-47
2022/06/17 05:03:27;;;;;;;;;9.50;9.00;;;;;22.26;46.84;101302.54;110251;1265;18621;-46
2022/06/17 05:05:54;;;;;;;;;7.00;7.00;;;;;22.21;47.02;101306.40;110204;1264;21619;-46
2022/06/17 05:08:22;;;;;;;;;7.67;7.67;;;;;22.25;47.23;101308.14;110272;1264;19644;-47
2022/06/17 05:10:49;;;;;;;;;8.00;6.50;;;;;22.26;47.28;101308.71;110304;1264;20079;-48
2022/06/17 05:13:16;;;;;;;;;6.67;6.67;;;;;22.29;47.76;101312.23;110345;1262;18657;-49
2022/06/17 05:15:44;;;;;;;;;9.00;9.00;;;;;22.37;47.65;101314.75;110244;1262;20114;-46
2022/06/17 05:18:11;;;;;;;;;10.67;10.67;;;;;22.38;47.72;101315.45;110081;1264;18738;-47
2022/06/17 05:20:38;;;;;;;;;9.67;9.00;;;;;22.42;47.65;101313.54;110081;1265;23065;-47
2022/06/17 05:23:05;;;;;;;;;9.50;9.50;;;;;22.56;47.65;101314.45;110197;1264;19577;-48
2022/06/17 05:25:33;;;;;;;;;9.67;8.67;;;;;22.69;47.55;101312.73;110217;1264;18959;-46
2022/06/17 05:28:00;;;;;;;;;9.67;9.67;;;;;22.81;47.56;101311.92;110286;1264;19793;-46
2022/06/17 05:30:27;;;;;;;;;9.50;9.00;;;;;22.88;47.45;101312.67;110238;1264;19627;-48
2022/06/17 05:32:55;;;;;;;;;10.00;8.67;;;;;22.88;47.35;101316.05;110249;1264;18447;-46
2022/06/17 05:35:22;;;;;;;;;8.33;8.33;;;;;22.90;47.12;101318.58;110259;1264;18781;-44
2022/06/17 05:37:49;;;;;;;;;15.33;14.67;;;;;22.94;47.14;101319.06;110296;1264;22050;-49
2022/06/17 05:40:17;;;;;;;;;12.33;10.33;;;;;22.97;47.32;101313.80;110249;1264;18605;-49
2022/06/17 05:42:44;;;;;;;;;14.00;13.67;;;;;23.00;47.22;101315.05;109882;1264;511705;-49
2022/06/17 05:45:11;;;;;;;;;15.00;15.00;;;;;23.03;47.24;101316.88;110263;1265;19516;-48
2022/06/17 05:47:38;;;;;;;;;14.00;13.00;;;;;23.12;47.13;101316.94;110249;1264;18866;-48
2022/06/17 05:50:06;;;;;;;;;12.00;10.50;;;;;23.18;47.06;101318.24;110285;1264;22656;-46
2022/06/17 05:52:33;;;;;;;;;10.00;9.00;;;;;23.21;47.04;101320.79;110271;1264;19547;-47
2022/06/17 05:55:01;;;;;;;;;10.00;10.00;;;;;23.24;46.85;101323.82;110294;1264;18734;-49
2022/06/17 05:57:28;;;;;;;;;14.00;14.00;;;;;23.20;46.51;101328.04;110183;1264;18862;-46
2022/06/17 05:59:55;;;;;;;;;14.00;14.00;;;;;23.02;46.96;101327.34;110102;1264;19393;-46
2022/06/17 06:02:22;;;;;;;;;18.00;16.67;;;;;22.93;47.31;101329.33;110171;1262;23509;-48
2022/06/17 06:04:50;;;;;;;;;14.00;14.00;;;;;22.87;47.43;101328.78;110287;1261;18825;-46
2022/06/17 06:07:17;;;;;;;;;16.00;14.67;;;;;22.84;47.68;101325.84;110272;1265;19857;-49
2022/06/17 06:09:44;;;;;;;;;14.00;13.50;;;;;22.78;47.99;101327.64;110264;1265;22913;-46
2022/06/17 06:12:11;;;;;;;;;18.33;18.00;;;;;22.77;48.56;101327.89;110228;1264;18778;-46
2022/06/17 06:14:39;;;;;;;;;18.33;18.00;;;;;22.87;48.45;101329.34;110238;1264;19483;-47
2022/06/17 06:17:06;;;;;;;;;20.00;19.00;;;;;22.92;48.34;101331.86;110213;1264;21269;-46
2022/06/17 06:19:33;;;;;;;;;18.50;18.50;;;;;22.84;48.47;101331.98;110241;1264;19226;-47
2022/06/17 06:22:01;;;;;;;;;14.33;14.33;;;;;22.80;48.71;101336.69;110317;1265;19768;-46
2022/06/17 06:24:29;;;;;;;;;14.67;14.67;;;;;22.77;48.96;101340.80;110252;1264;18882;-47
2022/06/17 06:26:56;;;;;;;;;17.33;16.67;;;;;22.76;49.44;101338.06;110285;1264;18703;-47
2022/06/17 06:29:23;;;;;;;;;16.67;15.33;;;;;22.77;49.40;101338.98;110236;1264;19755;-47
2022/06/17 06:31:51;;;;;;;;;19.00;18.00;;;;;22.84;49.35;101338.64;110268;1263;18765;-47
2022/06/17 06:34:20;;;;;;;;;17.33;16.67;;;;;22.81;49.19;101339.87;110144;1265;19089;-47
2022/06/17 06:36:47;;;;;;;;;17.33;16.67;;;;;22.81;49.45;101340.14;110312;1264;19633;-48
2022/06/17 06:39:14;;;;;;;;;15.67;15.67;;;;;22.88;49.36;101343.35;110277;1264;18822;-47
2022/06/17 06:41:41;;;;;;;;;13.00;13.00;;;;;22.93;49.18;101341.96;110259;1264;21888;-47
2022/06/17 06:44:09;;;;;;;;;17.33;16.00;;;;;22.99;49.01;101344.92;110247;1264;19978;-45
2022/06/17 06:46:36;;;;;;;;;15.00;14.50;;;;;22.94;48.79;101341.63;110274;1264;19033;-46
2022/06/17 06:49:03;;;;;;;;;15.33;15.00;;;;;22.90;49.02;101346.50;110275;1264;18970;-47
2022/06/17 06:51:31;;;;;;;;;19.00;18.00;;;;;22.94;49.12;101347.50;110249;1265;23109;-47
2022/06/17 06:53:58;;;;;;;;;15.00;14.00;;;;;23.03;49.10;101350.41;110256;1264;18733;-48
2022/06/17 06:56:25;;;;;;;;;12.00;11.00;;;;;23.02;48.83;101350.41;110249;1264;18852;-48
2022/06/17 06:58:53;;;;;;;;;15.00;14.67;;;;;23.07;49.00;101346.83;110242;1264;22835;-45
2022/06/17 07:01:20;;;;;;;;;17.33;15.33;;;;;23.16;48.89;101346.34;110285;1264;18679;-47
2022/06/17 07:03:47;;;;;;;;;11.00;11.00;;;;;23.15;48.41;101344.14;110271;1264;21672;-48
2022/06/17 07:06:14;;;;;;;;;13.33;12.33;;;;;23.14;48.38;101345.50;110182;1264;19541;-47
2022/06/17 07:08:42;;;;;;;;;11.67;11.67;;;;;23.09;48.63;101346.04;110196;1265;18708;-48
2022/06/17 07:11:09;;;;;;;;;10.67;10.33;;;;;23.17;48.56;101352.05;110241;1262;19307;-47
2022/06/17 07:13:36;;;;;;;;;10.67;10.67;;;;;23.26;48.45;101350.02;110333;1261;19457;-47
2022/06/17 07:16:06;;;;;;;;;11.67;11.67;;;;;23.24;48.35;101349.45;110340;1264;18712;-47
2022/06/17 07:18:33;;;;;;;;;11.67;11.67;;;;;23.16;48.42;101352.94;110328;1262;18947;-47
2022/06/17 07:21:00;;;;;;;;;13.33;11.67;;;;;23.22;48.13;101351.17;110297;1262;21355;-47
2022/06/17 07:23:29;;;;;;;;;11.00;11.00;;;;;23.27;48.23;101354.20;110271;1265;18958;-47
2022/06/17 07:25:57;;;;;;;;;14.50;14.50;;;;;23.32;48.46;101349.59;110103;1264;18734;-48
2022/06/17 07:28:25;;;;;;;;;12.00;11.00;;;;;23.33;48.53;101353.92;110129;1264;20788;-45
2022/06/17 07:30:53;;;;;;;;;11.50;11.00;;;;;23.31;48.47;101352.29;110192;1264;22331;-46
2022/06/17 07:33:20;;;;;;;;;9.00;9.00;;;;;23.38;48.37;101352.02;110219;1263;18768;-45
2022/06/17 07:35:50;;;;;;;;;10.00;9.00;;;;;23.46;47.94;101357.10;110211;1264;19783;-47
2022/06/17 07:41:02;;;;;;;;;58.33;47.33;;;;;23.48;47.80;101363.45;110189;1265;20886;-48
2022/06/17 07:43:30;;;;;;;;;44.33;34.00;;;;;23.54;47.73;101364.71;110219;1264;19487;-47
2022/06/17 07:45:57;;;;;;;;;65.50;50.00;;;;;23.63;47.79;101362.08;110245;1264;18865;-49
2022/06/17 07:48:24;;;;;;;;;49.33;39.67;;;;;23.73;48.04;101361.48;110190;1264;19115;-49
2022/06/17 07:50:52;;;;;;;;;42.00;37.00;;;;;23.77;47.95;101360.83;110278;1264;22083;-48
2022/06/17 07:53:20;;;;;;;;;32.33;28.67;;;;;23.77;47.88;101361.54;110179;1264;18850;-47
2022/06/17 07:55:47;;;;;;;;;32.67;25.33;;;;;23.79;47.86;101361.46;110070;1264;19094;-47
2022/06/17 07:58:14;;;;;;;;;24.67;24.33;;;;;23.78;47.80;101365.23;110185;1262;19518;-47
2022/06/17 08:00:42;;;;;;;;;18.67;18.00;;;;;23.78;47.48;101370.30;110238;1265;19359;-47
2022/06/17 08:03:09;;;;;;;;;18.67;15.33;;;;;23.86;47.08;101374.11;110093;1262;18899;-47
2022/06/17 08:05:37;;;;;;;;;20.00;16.67;;;;;24.03;46.80;101370.84;110250;1262;19556;-46
2022/06/17 08:08:04;;;;;;;;;15.33;14.00;;;;;24.08;46.57;101370.89;110400;1262;18850;-46
2022/06/17 08:10:32;;;;;;;;;14.00;12.67;;;;;24.14;46.06;101378.44;110128;1264;19186;-46
2022/06/17 08:12:59;;;;;;;;;16.00;14.00;;;;;24.18;45.96;101381.22;110178;1264;19678;-46
2022/06/17 08:15:26;;;;;;;;;15.00;14.00;;;;;24.05;46.12;101378.96;110184;1264;19394;-48
2022/06/17 08:17:54;;;;;;;;;15.00;12.00;;;;;23.92;46.23;101379.37;110187;1264;18750;-47
2022/06/17 08:20:21;;;;;;;;;12.00;12.00;;;;;23.82;46.13;101382.38;110139;1264;23293;-47
2022/06/17 08:22:48;;;;;;;;;14.67;13.33;;;;;23.75;45.96;101379.41;110244;1262;19054;-46
2022/06/17 08:25:15;;;;;;;;;11.00;11.00;;;;;23.75;46.25;101381.40;110249;1264;18815;-48
2022/06/17 08:27:43;;;;;;;;;11.67;11.67;;;;;23.78;46.22;101384.58;110191;1265;19375;-46
2022/06/17 08:30:10;;;;;;;;;15.00;14.67;;;;;23.78;45.94;101383.30;110142;1264;19351;-47
2022/06/17 08:32:46;;;;;;;;;8.33;8.33;;;;;23.85;46.08;101386.67;110283;1264;18763;-50
2022/06/17 08:35:14;;;;;;;;;9.33;9.33;;;;;23.85;45.80;101386.65;110258;1264;19630;-44
2022/06/17 08:37:41;;;;;;;;;14.33;13.33;;;;;23.85;45.71;101388.46;110295;1264;18529;-47
2022/06/17 08:40:08;;;;;;;;;11.00;11.00;;;;;23.87;45.36;101390.80;110348;1265;19100;-47
2022/06/17 08:42:36;;;;;;;;;12.00;12.00;;;;;23.72;45.33;101394.88;110308;1264;19594;-47
2022/06/17 08:45:03;;;;;;;;;11.00;10.00;;;;;23.64;45.19;101397.63;110298;1264;19033;-45
2022/06/17 08:47:30;;;;;;;;;12.50;11.50;;;;;23.71;45.08;101400.11;110275;1264;22265;-46
2022/06/17 08:49:57;;;;;;;;;11.00;11.00;;;;;23.79;45.12;101401.64;110268;1264;23803;-46
2022/06/17 08:52:25;;;;;;;;;9.67;9.67;;;;;23.87;44.92;101398.09;110211;1264;18869;-48
2022/06/17 08:54:52;;;;;;;;;11.00;10.33;;;;;23.87;44.76;101398.19;110297;1264;18623;-47
2022/06/17 08:57:20;;;;;;;;;11.00;11.00;;;;;23.90;44.57;101396.09;110228;1265;19594;-47
2022/06/17 08:59:47;;;;;;;;;9.00;9.00;;;;;23.76;44.57;101396.20;110263;1264;22370;-47
2022/06/17 09:02:19;;;;;;;;;9.00;9.00;;;;;23.68;44.93;101391.13;110266;1264;21411;-48
2022/06/17 09:04:46;;;;;;;;;10.00;9.00;;;;;23.62;45.01;101388.59;110338;1264;19651;-47
2022/06/17 09:07:13;;;;;;;;;10.00;8.00;;;;;23.72;45.18;101390.11;110343;1264;18769;-47
2022/06/17 09:09:41;;;;;;;;;10.33;10.00;;;;;23.85;45.13;101391.73;110211;1264;18783;-47
2022/06/17 09:12:08;;;;;;;;;9.00;9.00;;;;;23.82;44.91;101390.63;110279;1264;19490;-49
2022/06/17 09:14:35;;;;;;;;;10.00;10.00;;;;;23.77;44.95;101379.33;110291;1264;18840;-47
2022/06/17 09:17:03;;;;;;;;;11.00;10.00;;;;;23.69;45.04;101383.91;110258;1265;18953;-46
2022/06/17 09:19:30;;;;;;;;;10.00;10.00;;;;;23.74;44.92;101395.11;110267;1264;22629;-46
2022/06/17 09:21:57;;;;;;;;;11.00;11.00;;;;;23.72;44.72;101397.27;110327;1264;22360;-48
2022/06/17 09:24:24;;;;;;;;;11.67;11.67;;;;;23.76;44.68;101396.08;110266;1264;19057;-47
2022/06/17 09:26:52;;;;;;;;;9.00;9.00;;;;;23.87;44.98;101394.56;110316;1264;19520;-45
2022/06/17 09:29:19;;;;;;;;;8.67;8.67;;;;;23.93;44.97;101393.86;110317;1264;21992;-46
2022/06/17 09:31:46;;;;;;;;;10.33;8.67;;;;;23.88;45.05;101403.85;110215;1264;18793;-47
2022/06/17 09:34:13;;;;;;;;;7.67;7.33;;;;;23.87;44.77;101400.98;110277;1264;21039;-45
2022/06/17 09:36:41;;;;;;;;;10.00;8.67;;;;;23.86;44.48;101400.43;110136;1263;18711;-45
2022/06/17 09:39:08;;;;;;;;;10.67;8.00;;;;;23.87;44.31;101403.11;110243;1264;18880;-48
2022/06/17 09:41:35;;;;;;;;;7.67;7.00;;;;;23.87;44.24;101399.88;110285;1264;22938;-46
2022/06/17 09:44:02;;;;;;;;;7.00;7.00;;;;;23.91;43.69;101394.82;110318;1264;18929;-48
2022/06/17 09:46:30;;;;;;;;;7.00;7.00;;;;;23.96;43.52;101400.27;110314;1265;18735;-46
2022/06/17 09:48:57;;;;;;;;;7.50;6.00;;;;;23.92;43.62;101397.61;110334;1265;19640;-46
2022/06/17 09:51:24;;;;;;;;;6.00;6.00;;;;;23.88;43.72;101400.86;110281;1263;20998;-47
2022/06/17 09:53:51;;;;;;;;;7.00;7.00;;;;;23.79;43.97;101402.30;110283;1264;18761;-46
2022/06/17 09:56:19;;;;;;;;;8.00;7.00;;;;;23.75;44.44;101401.86;110268;1265;21062;-46
2022/06/17 09:58:46;;;;;;;;;7.67;7.00;;;;;23.85;44.36;101396.63;110189;1265;18544;-46
2022/06/17 10:01:13;;;;;;;;;6.00;6.00;;;;;23.91;44.45;101403.64;110335;1265;18741;-46
2022/06/17 10:03:40;;;;;;;;;7.00;7.00;;;;;23.95;44.62;101402.17;110165;1264;19536;-45
2022/06/17 10:06:08;;;;;;;;;6.00;6.00;;;;;23.98;44.47;101402.98;110175;1264;19811;-48
2022/06/17 10:08:35;;;;;;;;;6.00;6.00;;;;;24.10;43.91;101399.36;110260;1262;18872;-48
2022/06/17 10:11:03;;;;;;;;;7.67;7.00;;;;;24.31;43.78;101398.06;110308;1261;19626;-46
2022/06/17 10:13:30;;;;;;;;;6.67;6.00;;;;;24.27;43.82;101396.59;110313;1264;18585;-47
2022/06/17 10:18:43;;;;;;;;;8.00;7.33;;;;;23.99;44.45;101399.89;110028;1264;22973;-48
2022/06/17 10:21:10;;;;;;;;;7.67;7.00;;;;;23.99;44.70;101398.79;110236;1264;18339;-48
2022/06/17 10:23:37;;;;;;;;;8.00;7.00;;;;;24.05;43.59;101398.27;110203;1264;18798;-46
2022/06/17 10:26:05;;;;;;;;;9.67;9.33;;;;;24.25;43.37;101399.95;110179;1264;19612;-47
2022/06/17 10:28:32;;;;;;;;;8.33;8.33;;;;;24.34;43.04;101402.29;110127;1264;18568;-45
2022/06/17 10:31:00;;;;;;;;;8.00;8.00;;;;;24.34;43.29;101406.84;110303;1262;18848;-45
2022/06/17 10:33:27;;;;;;;;;7.67;7.67;;;;;24.21;43.54;101410.98;110264;1261;20273;-45
2022/06/17 10:35:54;;;;;;;;;7.67;7.67;;;;;24.08;43.54;101405.98;110287;1262;18420;-46
2022/06/17 10:38:21;;;;;;;;;11.00;8.00;;;;;24.03;43.30;101399.31;110260;1262;18748;-46
2022/06/17 10:40:49;;;;;;;;;6.00;6.00;;;;;24.11;42.80;101399.29;110139;1261;19918;-45
2022/06/17 10:43:16;;;;;;;;;6.67;6.33;;;;;24.14;43.03;101400.50;110113;1264;18808;-46
2022/06/17 10:45:43;;;;;;;;;7.00;6.00;;;;;24.08;43.26;101395.06;110244;1264;18913;-46
2022/06/17 10:48:10;;;;;;;;;6.67;6.67;;;;;23.99;43.05;101398.25;110299;1262;19522;-47
2022/06/17 10:50:37;;;;;;;;;7.67;7.00;;;;;23.95;43.13;101400.52;110197;1262;18665;-45
2022/06/17 10:53:05;;;;;;;;;7.33;7.00;;;;;24.01;42.78;101397.48;110223;1264;18792;-47
2022/06/17 10:55:32;;;;;;;;;7.67;7.00;;;;;24.09;42.18;101393.96;110168;1262;19456;-45
2022/06/17 10:57:59;;;;;;;;;7.33;6.33;;;;;24.20;41.90;101398.48;110199;1264;18441;-46
2022/06/17 11:00:27;;;;;;;;;8.00;7.00;;;;;24.18;42.15;101397.86;110225;1262;19834;-45
2022/06/17 11:02:58;;;;;;;;;7.67;7.67;;;;;24.11;42.53;101397.78;110242;1262;19915;-48
2022/06/17 11:05:25;;;;;;;;;7.00;6.67;;;;;24.12;42.61;101397.77;110237;1265;23357;-47
2022/06/17 11:07:52;;;;;;;;;7.33;7.00;;;;;24.13;42.93;101397.15;110212;1264;20085;-46
2022/06/17 11:10:20;;;;;;;;;7.67;7.00;;;;;24.09;43.00;101398.58;110299;1264;19683;-47
2022/06/17 11:12:47;;;;;;;;;7.00;7.00;;;;;24.08;43.08;101390.69;110305;1264;18418;-47
2022/06/17 11:15:14;;;;;;;;;8.00;7.00;;;;;24.06;42.78;101393.08;110266;1264;21668;-48
2022/06/17 11:17:41;;;;;;;;;7.00;7.00;;;;;24.08;42.92;101397.02;110258;1264;19475;-46
2022/06/17 11:20:09;;;;;;;;;7.33;7.00;;;;;24.06;43.06;101397.27;110230;1265;18836;-48